ROMMA est une association bénévole à but non lucratif. Votre soutien est indispensable : ADHERER à ROMMA ou FAIRE un DON

Val-d'Arly - (73, Savoie)

Beaufortain (2050 m)   Longitude: 06° 35' 21" E   Latitude: 45° 46' 53" N Station romma n°118
 

Détail journalier du     <<     >>

Température Humidité Vent Dir Rafale Dir. rafale Ensol.
Heure (°C) (%) (km/h) (km/h) (min)
01:00 -3.0818---16---0
02:00 -3.0797---13---0
03:00 -2.5798---16---0
04:00 -2.8822---10---0
05:00 -3.2805---15---0
06:00 -2.9787---15---0
07:00 -1.4728---21---0
08:00 -1.67913---27---10
09:00 -1.78013---32---60
10:00 -0.27720---31---40
11:00 -0.17515---21---0
12:00 0.57521---31---50
13:00 -1.08215---24---10
14:00 -0.8839---18---0
15:00 -1.28113---23---0
16:00 -1.58220---35---0
17:00 -1.88423---39---0
18:00 -2.28919---34---0
19:00 -1.88816---24---0
20:00 -2.49015---23---0
21:00 -2.59216---26---0
22:00 -2.49118---26---0
23:00
minuit

Graphique du 11-11-2019

 

Serveur OMMA